createdAt,value
2023-01-26T00:01:14.608Z,96422.72
2023-01-26T00:03:41.827Z,96416.38
2023-01-26T00:06:11.621Z,96416.38
2023-01-26T00:08:39.577Z,96413.38
2023-01-26T00:11:07.988Z,96409.81
2023-01-26T00:13:35.373Z,96408.31
2023-01-26T00:16:03.526Z,96404.00
2023-01-26T00:18:31.320Z,96404.75
2023-01-26T00:21:02.880Z,96391.63
2023-01-26T00:23:31.462Z,96392.22
2023-01-26T00:25:58.094Z,96386.22
2023-01-26T00:28:24.817Z,96391.66
2023-01-26T00:30:51.481Z,96400.50
2023-01-26T00:33:18.145Z,96382.88
2023-01-26T00:35:44.821Z,96392.63
2023-01-26T00:38:12.423Z,96392.28
2023-01-26T00:40:40.658Z,96387.22
2023-01-26T00:43:07.465Z,96383.91
2023-01-26T00:45:35.847Z,96387.44
2023-01-26T00:48:05.447Z,96379.78
2023-01-26T00:50:32.338Z,96374.72
2023-01-26T00:52:59.344Z,96379.03
2023-01-26T00:55:32.552Z,96376.81
2023-01-26T00:58:01.930Z,96372.84
2023-01-26T01:00:31.182Z,96366.13
2023-01-26T01:02:58.532Z,96361.09
2023-01-26T01:05:27.747Z,96365.78
2023-01-26T01:07:54.913Z,96367.25
2023-01-26T01:10:22.503Z,96363.88
2023-01-26T01:12:49.599Z,96359.25
2023-01-26T01:15:16.691Z,96363.31
2023-01-26T01:17:43.332Z,96374.00
2023-01-26T01:20:11.695Z,96370.84
2023-01-26T01:22:38.478Z,96367.84
2023-01-26T01:25:06.032Z,96372.53
2023-01-26T01:27:32.989Z,96375.34
2023-01-26T01:29:59.680Z,96366.72
2023-01-26T01:32:26.413Z,96374.59
2023-01-26T01:34:53.041Z,96362.63
2023-01-26T01:37:21.290Z,96366.34
2023-01-26T01:39:49.178Z,96378.91
2023-01-26T01:42:15.873Z,96360.94
2023-01-26T01:44:43.564Z,96366.19
2023-01-26T01:47:26.769Z,96363.75
2023-01-26T01:49:55.236Z,96363.41
2023-01-26T01:52:28.857Z,96380.22
2023-01-26T01:55:10.179Z,96351.97
2023-01-26T01:57:46.403Z,96360.75
2023-01-26T02:00:16.129Z,96367.44
2023-01-26T02:03:09.325Z,96353.28
2023-01-26T02:05:42.154Z,96359.59
2023-01-26T02:08:11.401Z,96357.34
2023-01-26T02:10:38.254Z,96354.72
2023-01-26T02:13:06.436Z,96368.03
2023-01-26T02:15:33.189Z,96355.13
2023-01-26T02:18:03.798Z,96347.09
2023-01-26T02:20:57.289Z,96357.00
2023-01-26T02:23:26.326Z,96352.69
2023-01-26T02:25:53.467Z,96338.84
2023-01-26T02:28:27.487Z,96334.19
2023-01-26T02:30:56.040Z,96333.41
2023-01-26T02:33:29.295Z,96327.44
2023-01-26T02:36:00.784Z,96335.28
2023-01-26T02:38:33.912Z,96312.31
2023-01-26T02:41:07.057Z,96304.25
2023-01-26T02:43:35.396Z,96308.19
2023-01-26T02:46:04.263Z,96304.44
2023-01-26T02:48:52.720Z,96304.63
2023-01-26T02:51:19.474Z,96301.44
2023-01-26T02:53:47.943Z,96305.94
2023-01-26T02:56:14.595Z,96295.47
2023-01-26T02:58:41.508Z,96291.00
2023-01-26T03:01:09.808Z,96290.63
2023-01-26T03:03:46.549Z,96288.38
2023-01-26T03:06:15.275Z,96284.06
2023-01-26T03:08:42.447Z,96288.59
2023-01-26T03:11:10.411Z,96279.25
2023-01-26T03:13:37.469Z,96284.66
2023-01-26T03:16:07.543Z,96277.75
2023-01-26T03:18:54.045Z,96281.88
2023-01-26T03:21:42.234Z,96274.00
2023-01-26T03:24:32.173Z,96269.84
2023-01-26T03:27:20.437Z,96276.34
2023-01-26T03:29:47.184Z,96276.34
2023-01-26T03:32:14.337Z,96279.16
2023-01-26T03:34:42.498Z,96260.31
2023-01-26T03:37:09.342Z,96259.94
2023-01-26T03:40:12.000Z,96274.88
2023-01-26T03:42:59.652Z,96268.16
2023-01-26T03:45:47.484Z,96279.94
2023-01-26T03:48:32.917Z,96277.13
2023-01-26T03:51:20.537Z,96254.31
2023-01-26T03:54:06.040Z,96271.09
2023-01-26T03:56:33.034Z,96255.03
2023-01-26T03:59:10.164Z,96265.66
2023-01-26T04:02:08.302Z,96266.97
2023-01-26T04:04:54.389Z,96270.38
2023-01-26T04:07:44.767Z,96275.97
2023-01-26T04:10:12.072Z,96275.22
2023-01-26T04:12:38.841Z,96270.22
2023-01-26T04:15:35.733Z,96266.44
2023-01-26T04:18:25.636Z,96260.47
2023-01-26T04:21:11.495Z,96256.00
2023-01-26T04:23:40.771Z,96254.31
2023-01-26T04:26:07.456Z,96253.00
2023-01-26T04:28:36.017Z,96257.84
2023-01-26T04:31:04.741Z,96257.84
2023-01-26T04:33:35.142Z,96250.19
2023-01-26T04:36:07.066Z,96247.75
2023-01-26T04:38:36.499Z,96259.34
2023-01-26T04:41:03.383Z,96232.84
2023-01-26T04:43:34.651Z,96260.47
2023-01-26T04:46:04.096Z,96246.28
2023-01-26T04:48:34.211Z,96244.44
2023-01-26T04:51:04.470Z,96236.63
2023-01-26T04:53:35.210Z,96244.59
2023-01-26T04:56:03.296Z,96235.13
2023-01-26T04:58:30.558Z,96248.38
2023-01-26T05:00:58.437Z,96239.59
2023-01-26T05:03:26.512Z,96244.25
2023-01-26T05:05:55.178Z,96242.41
2023-01-26T05:08:24.599Z,96246.31
2023-01-26T05:10:52.465Z,96245.56
2023-01-26T05:13:22.975Z,96255.66
2023-01-26T05:16:16.063Z,96248.56
2023-01-26T05:19:03.809Z,96245.75
2023-01-26T05:21:56.750Z,96258.25
2023-01-26T05:24:23.549Z,96253.38
2023-01-26T05:27:18.987Z,96253.56
2023-01-26T05:29:50.623Z,96236.97
2023-01-26T05:32:18.643Z,96242.19
2023-01-26T05:34:46.245Z,96243.13
2023-01-26T05:37:15.245Z,96242.72
2023-01-26T05:39:44.468Z,96247.97
2023-01-26T05:42:12.843Z,96235.84
2023-01-26T05:44:48.691Z,96245.88
2023-01-26T05:47:16.851Z,96248.88
2023-01-26T05:49:47.081Z,96241.78
2023-01-26T05:52:21.196Z,96255.03
2023-01-26T05:54:49.464Z,96252.22
2023-01-26T05:57:17.626Z,96247.38
2023-01-26T05:59:50.032Z,96246.28
2023-01-26T06:02:17.638Z,96251.84
2023-01-26T06:04:45.290Z,96254.84
2023-01-26T06:07:13.730Z,96255.56
2023-01-26T06:09:48.782Z,96256.16
2023-01-26T06:12:22.511Z,96257.06
2023-01-26T06:14:51.677Z,96252.41
2023-01-26T06:17:18.824Z,96243.47
2023-01-26T06:19:47.603Z,96245.81
2023-01-26T06:22:14.721Z,96251.84
2023-01-26T06:24:46.191Z,96248.88
2023-01-26T06:27:16.137Z,96246.66
2023-01-26T06:29:45.654Z,96252.47
2023-01-26T06:32:14.199Z,96257.50
2023-01-26T06:34:42.617Z,96268.38
2023-01-26T06:37:10.683Z,96259.19
2023-01-26T06:39:40.293Z,96266.72
2023-01-26T06:42:08.671Z,96246.34
2023-01-26T06:44:35.799Z,96263.13
2023-01-26T06:47:02.562Z,96257.94
2023-01-26T06:49:29.300Z,96260.91
2023-01-26T06:52:05.162Z,96255.47
2023-01-26T06:54:48.678Z,96254.16
2023-01-26T06:57:45.691Z,96248.56
2023-01-26T07:00:32.628Z,96241.63
2023-01-26T07:03:13.139Z,96244.44
2023-01-26T07:05:39.835Z,96240.31
2023-01-26T07:08:08.661Z,96233.94
2023-01-26T07:10:36.273Z,96240.31
2023-01-26T07:13:04.567Z,96243.13
2023-01-26T07:15:31.220Z,96247.41
2023-01-26T07:17:58.803Z,96246.84
2023-01-26T07:20:26.398Z,96244.03
2023-01-26T07:22:53.599Z,96244.81
2023-01-26T07:25:20.274Z,96235.66
2023-01-26T07:27:46.878Z,96240.31
2023-01-26T07:30:14.532Z,96244.22
2023-01-26T07:32:41.347Z,96243.81
2023-01-26T07:35:08.396Z,96241.19
2023-01-26T07:37:35.212Z,96243.63
2023-01-26T07:40:01.960Z,96254.06
2023-01-26T07:42:31.112Z,96237.22
2023-01-26T07:45:06.455Z,96238.00
2023-01-26T07:47:33.202Z,96226.63
2023-01-26T07:49:59.892Z,96227.72
2023-01-26T07:52:26.673Z,96236.50
2023-01-26T07:54:53.352Z,96227.56
2023-01-26T07:57:19.958Z,96229.78
2023-01-26T07:59:46.582Z,96225.66
2023-01-26T08:02:13.290Z,96217.06
2023-01-26T08:04:39.886Z,96231.06
2023-01-26T08:07:07.080Z,96222.84
2023-01-26T08:09:33.798Z,96227.09
2023-01-26T08:12:00.678Z,96225.78
2023-01-26T08:14:38.186Z,96230.09
2023-01-26T08:17:11.961Z,96226.13
2023-01-26T08:19:38.624Z,96217.53
2023-01-26T08:22:05.270Z,96219.94
2023-01-26T08:24:31.923Z,96220.69
2023-01-26T08:26:58.596Z,96204.63
2023-01-26T08:29:25.345Z,96217.13
2023-01-26T08:31:52.133Z,96196.78
2023-01-26T08:34:18.997Z,96219.75
2023-01-26T08:36:45.582Z,96207.22
2023-01-26T08:39:12.210Z,96213.34
2023-01-26T08:41:39.601Z,96218.22
2023-01-26T08:44:07.273Z,96220.66
2023-01-26T08:46:33.966Z,96214.63
2023-01-26T08:49:00.684Z,96219.72
2023-01-26T08:51:27.478Z,96218.91
2023-01-26T08:53:54.803Z,96217.84
2023-01-26T08:56:21.568Z,96217.47
2023-01-26T08:58:48.270Z,96223.81
2023-01-26T09:01:17.066Z,96210.91
2023-01-26T09:03:44.745Z,96220.41
2023-01-26T09:06:13.699Z,96210.53
2023-01-26T09:08:40.530Z,96216.28
2023-01-26T09:11:08.181Z,96211.59
2023-01-26T09:13:37.227Z,96211.81
2023-01-26T09:16:08.527Z,96211.41
2023-01-26T09:18:35.243Z,96217.59
2023-01-26T09:21:06.794Z,96210.13
2023-01-26T09:23:33.980Z,96219.84
2023-01-26T09:26:00.650Z,96225.63
2023-01-26T09:28:27.748Z,96220.00
2023-01-26T09:30:54.696Z,96215.75
2023-01-26T09:33:22.923Z,96226.78
2023-01-26T09:35:50.161Z,96230.31
2023-01-26T09:38:17.074Z,96226.59
2023-01-26T09:41:00.968Z,96233.94
2023-01-26T09:43:36.883Z,96237.84
2023-01-26T09:46:19.525Z,96232.22
2023-01-26T09:49:14.234Z,96224.78
2023-01-26T09:51:46.828Z,96220.50
2023-01-26T09:54:40.281Z,96221.41
2023-01-26T09:57:16.401Z,96214.91
2023-01-26T09:59:46.041Z,96224.81
2023-01-26T10:02:23.335Z,96216.22
2023-01-26T10:04:56.424Z,96219.59
2023-01-26T10:07:23.085Z,96214.41
2023-01-26T10:09:51.994Z,96197.56
2023-01-26T10:12:24.416Z,96212.47
2023-01-26T10:15:18.492Z,96209.84
2023-01-26T10:17:47.891Z,96211.91
2023-01-26T10:20:36.438Z,96205.53
2023-01-26T10:23:14.344Z,96199.75
2023-01-26T10:25:42.411Z,96202.56
2023-01-26T10:28:18.303Z,96191.06
2023-01-26T10:30:47.686Z,96198.44
2023-01-26T10:33:25.229Z,96195.06
2023-01-26T10:35:52.188Z,96193.75
2023-01-26T10:38:33.803Z,96191.84
2023-01-26T10:41:08.305Z,96195.59
2023-01-26T10:43:42.033Z,96195.94
2023-01-26T10:46:25.029Z,96203.22
2023-01-26T10:48:54.042Z,96197.19
2023-01-26T10:51:27.221Z,96195.88
2023-01-26T10:54:28.133Z,96196.78
2023-01-26T10:57:07.263Z,96167.84
2023-01-26T10:59:46.131Z,96188.69
2023-01-26T11:02:12.690Z,96181.03
2023-01-26T11:04:39.970Z,96180.59
2023-01-26T11:07:28.549Z,96181.53
2023-01-26T11:09:56.853Z,96178.13
2023-01-26T11:12:26.420Z,96173.84
2023-01-26T11:15:06.253Z,96176.66
2023-01-26T11:17:44.005Z,96181.13
2023-01-26T11:20:32.087Z,96167.31
2023-01-26T11:23:38.394Z,96181.28
2023-01-26T11:26:04.965Z,96188.06
2023-01-26T11:29:13.061Z,96175.97
2023-01-26T11:31:54.936Z,96186.41
2023-01-26T11:34:36.820Z,96184.69
2023-01-26T11:37:31.614Z,96170.69
2023-01-26T11:40:39.592Z,96173.66
2023-01-26T11:43:40.070Z,96174.81
2023-01-26T11:46:25.588Z,96173.16
2023-01-26T11:49:19.896Z,96167.38
2023-01-26T11:52:07.656Z,96172.66
2023-01-26T11:54:46.184Z,96168.19
2023-01-26T11:57:21.860Z,96171.16
2023-01-26T12:00:01.124Z,96167.47
2023-01-26T12:02:32.665Z,96162.91
2023-01-26T12:05:03.605Z,96158.63
2023-01-26T12:07:51.409Z,96148.69
2023-01-26T12:10:24.242Z,96153.34
2023-01-26T12:12:59.189Z,96150.94
2023-01-26T12:15:33.116Z,96148.13
2023-01-26T12:18:09.192Z,96154.47
2023-01-26T12:20:41.414Z,96145.50
2023-01-26T12:23:28.812Z,96173.59
2023-01-26T12:26:13.760Z,96140.78
2023-01-26T12:28:48.083Z,96140.22
2023-01-26T12:31:23.040Z,96136.09
2023-01-26T12:33:53.737Z,96130.28
2023-01-26T12:36:25.568Z,96129.16
2023-01-26T12:39:13.136Z,96127.31
2023-01-26T12:41:57.515Z,96146.69
2023-01-26T12:44:40.590Z,96141.94
2023-01-26T12:47:28.899Z,96132.03
2023-01-26T12:50:02.001Z,96122.88
2023-01-26T12:52:36.347Z,96127.91
2023-01-26T12:55:15.370Z,96132.19
2023-01-26T12:57:51.855Z,96143.03
2023-01-26T13:00:22.529Z,96135.94
2023-01-26T13:03:04.137Z,96140.25
2023-01-26T13:05:36.248Z,96129.97
2023-01-26T13:08:30.770Z,96133.28
2023-01-26T13:10:59.498Z,96123.97
2023-01-26T13:13:26.053Z,96125.84
2023-01-26T13:16:30.392Z,96123.09
2023-01-26T13:18:58.633Z,96126.69
2023-01-26T13:21:30.876Z,96121.06
2023-01-26T13:23:57.599Z,96120.88
2023-01-26T13:26:33.127Z,96122.53
2023-01-26T13:29:33.195Z,96117.16
2023-01-26T13:32:08.706Z,96124.94
2023-01-26T13:34:48.478Z,96124.53
2023-01-26T13:37:23.365Z,96123.97
2023-01-26T13:39:56.390Z,96120.00
2023-01-26T13:42:28.457Z,96123.22
2023-01-26T13:45:03.197Z,96118.91
2023-01-26T13:47:44.170Z,96120.47
2023-01-26T13:50:30.576Z,96116.66
2023-01-26T13:52:57.876Z,96104.19
2023-01-26T13:55:27.750Z,96112.97
2023-01-26T13:58:14.094Z,96120.41
2023-01-26T14:00:41.113Z,96123.03
2023-01-26T14:03:23.759Z,96116.09
2023-01-26T14:06:06.194Z,96119.47
2023-01-26T14:08:33.479Z,96116.50
2023-01-26T14:11:02.686Z,96123.59
2023-01-26T14:13:35.742Z,96120.06
2023-01-26T14:16:07.373Z,96153.03
2023-01-26T14:18:34.501Z,96127.91
2023-01-26T14:21:06.497Z,96121.56
2023-01-26T14:23:35.967Z,96128.66
2023-01-26T14:26:17.408Z,96133.53
2023-01-26T14:28:47.414Z,96129.41
2023-01-26T14:31:20.915Z,96129.59
2023-01-26T14:33:51.943Z,96129.59
2023-01-26T14:36:20.744Z,96127.34
2023-01-26T14:38:50.174Z,96125.75
2023-01-26T14:41:22.876Z,96117.81
2023-01-26T14:43:57.105Z,96119.91
2023-01-26T14:46:49.961Z,96125.69
2023-01-26T14:49:32.813Z,96118.56
2023-01-26T14:51:59.665Z,96120.22
2023-01-26T14:54:34.452Z,96119.66
2023-01-26T14:57:01.252Z,96108.44
2023-01-26T14:59:39.927Z,96117.19
2023-01-26T15:02:21.188Z,96112.13
2023-01-26T15:05:00.008Z,96116.28
2023-01-26T15:07:39.091Z,96109.31
2023-01-26T15:10:31.138Z,96121.66
2023-01-26T15:12:59.997Z,96106.28
2023-01-26T15:15:32.790Z,96109.44
2023-01-26T15:18:03.913Z,96107.94
2023-01-26T15:20:30.486Z,96103.81
2023-01-26T15:22:57.683Z,96110.75
2023-01-26T15:25:29.518Z,96105.28
2023-01-26T15:28:00.496Z,96123.31
2023-01-26T15:30:31.073Z,96116.22
2023-01-26T15:32:58.053Z,96120.41
2023-01-26T15:35:34.930Z,96103.09
2023-01-26T15:38:04.074Z,96128.25
2023-01-26T15:40:31.489Z,96133.88
2023-01-26T15:43:15.861Z,96131.41
2023-01-26T15:45:55.152Z,96139.84
2023-01-26T15:48:24.194Z,96138.75
2023-01-26T15:50:51.340Z,96130.81
2023-01-26T15:53:22.099Z,96142.41
2023-01-26T15:55:52.913Z,96144.63
2023-01-26T15:58:19.837Z,96138.25
2023-01-26T16:00:46.657Z,96149.50
2023-01-26T16:03:16.591Z,96139.59
2023-01-26T16:05:52.954Z,96145.97
2023-01-26T16:08:20.382Z,96130.66
2023-01-26T16:10:47.696Z,96141.81
2023-01-26T16:13:20.073Z,96135.63
2023-01-26T16:15:52.847Z,96137.88
2023-01-26T16:18:20.220Z,96138.25
2023-01-26T16:20:49.047Z,96139.19
2023-01-26T16:23:26.397Z,96135.63
2023-01-26T16:25:53.393Z,96138.25
2023-01-26T16:28:20.907Z,96134.13
2023-01-26T16:30:50.226Z,96143.16
2023-01-26T16:33:24.625Z,96131.56
2023-01-26T16:35:51.628Z,96142.41
2023-01-26T16:38:18.301Z,96138.44
2023-01-26T16:40:47.629Z,96141.22
2023-01-26T16:43:27.614Z,96134.13
2023-01-26T16:45:54.637Z,96120.91
2023-01-26T16:48:22.790Z,96132.25
2023-01-26T16:50:53.852Z,96138.03
2023-01-26T16:53:26.389Z,96135.94
2023-01-26T16:55:53.546Z,96141.56
2023-01-26T16:58:21.890Z,96137.44
2023-01-26T17:00:49.433Z,96135.94
2023-01-26T17:03:16.128Z,96143.66
2023-01-26T17:05:43.346Z,96144.03
2023-01-26T17:08:10.462Z,96147.03
2023-01-26T17:10:40.117Z,96147.03
2023-01-26T17:13:14.672Z,96148.69
2023-01-26T17:15:42.051Z,96156.38
2023-01-26T17:18:12.694Z,96149.09
2023-01-26T17:20:41.420Z,96144.81
2023-01-26T17:23:08.845Z,96145.13
2023-01-26T17:25:35.694Z,96143.06
2023-01-26T17:28:03.390Z,96146.47
2023-01-26T17:30:30.126Z,96147.94
2023-01-26T17:32:56.812Z,96139.69
2023-01-26T17:35:23.547Z,96141.16
2023-01-26T17:37:50.302Z,96147.69
2023-01-26T17:40:17.200Z,96142.66
2023-01-26T17:42:43.891Z,96144.88
2023-01-26T17:45:11.643Z,96151.81
2023-01-26T17:47:38.820Z,96151.09
2023-01-26T17:50:06.069Z,96148.28
2023-01-26T17:52:35.452Z,96144.72
2023-01-26T17:55:05.265Z,96144.16
2023-01-26T17:57:32.604Z,96143.38
2023-01-26T17:59:59.375Z,96144.72
2023-01-26T18:02:26.167Z,96150.34
2023-01-26T18:04:52.993Z,96138.94
2023-01-26T18:07:19.888Z,96142.88
2023-01-26T18:09:46.727Z,96135.78
2023-01-26T18:12:13.524Z,96146.19
2023-01-26T18:14:40.305Z,96142.81
2023-01-26T18:17:07.043Z,96137.19
2023-01-26T18:19:34.099Z,96137.78
2023-01-26T18:22:01.026Z,96143.38
2023-01-26T18:24:27.794Z,96138.75
2023-01-26T18:26:55.619Z,96137.94
2023-01-26T18:29:22.317Z,96138.84
2023-01-26T18:31:49.136Z,96144.47
2023-01-26T18:34:16.003Z,96136.81
2023-01-26T18:36:42.692Z,96151.44
2023-01-26T18:39:14.458Z,96144.47
2023-01-26T18:41:43.529Z,96144.31
2023-01-26T18:44:10.628Z,96137.19
2023-01-26T18:46:37.776Z,96139.84
2023-01-26T18:49:04.777Z,96138.19
2023-01-26T18:51:35.002Z,96141.41
2023-01-26T18:54:04.102Z,96133.72
2023-01-26T18:56:31.722Z,96155.22
2023-01-26T18:58:58.740Z,96154.63
2023-01-26T19:01:26.266Z,96149.00
2023-01-26T19:03:56.871Z,96145.13
2023-01-26T19:06:25.695Z,96144.72
2023-01-26T19:08:58.925Z,96150.94
2023-01-26T19:11:30.945Z,96153.13
2023-01-26T19:13:58.831Z,96150.16
2023-01-26T19:16:26.210Z,96151.81
2023-01-26T19:18:54.307Z,96150.34
2023-01-26T19:21:24.593Z,96142.16
2023-01-26T19:23:57.048Z,96138.44
2023-01-26T19:26:27.920Z,96146.84
2023-01-26T19:28:55.137Z,96146.94
2023-01-26T19:31:23.352Z,96159.09
2023-01-26T19:33:54.434Z,96120.56
2023-01-26T19:36:22.230Z,96135.13
2023-01-26T19:38:49.094Z,96119.16
2023-01-26T19:41:18.259Z,96137.59
2023-01-26T19:43:45.193Z,96134.78
2023-01-26T19:46:13.730Z,96106.06
2023-01-26T19:48:41.108Z,96132.13
2023-01-26T19:51:10.280Z,96118.56
2023-01-26T19:53:46.482Z,96144.03
2023-01-26T19:56:22.344Z,96157.94
2023-01-26T19:58:51.351Z,96131.41
2023-01-26T20:01:18.865Z,96139.72
2023-01-26T20:03:49.928Z,96135.22
2023-01-26T20:06:20.762Z,96132.97
2023-01-26T20:08:48.545Z,96128.88
2023-01-26T20:11:16.671Z,96063.78
2023-01-26T20:13:44.715Z,96102.28
2023-01-26T20:16:14.051Z,96136.88
2023-01-26T20:18:41.378Z,96113.78
2023-01-26T20:21:08.943Z,96162.81
2023-01-26T20:23:37.030Z,96082.53
2023-01-26T20:26:09.984Z,96128.34
2023-01-26T20:28:40.238Z,96076.09
2023-01-26T20:31:11.215Z,96118.75
2023-01-26T20:33:39.392Z,96099.66
2023-01-26T20:36:13.096Z,96130.81
2023-01-26T20:38:45.049Z,96092.69
2023-01-26T20:41:19.116Z,96063.00
2023-01-26T20:43:59.221Z,96092.84
2023-01-26T20:46:29.964Z,96082.88
2023-01-26T20:48:57.084Z,96126.28
2023-01-26T20:51:29.594Z,96136.78
2023-01-26T20:53:57.632Z,96120.16
2023-01-26T20:56:25.530Z,96111.88
2023-01-26T20:58:53.795Z,96126.84
2023-01-26T21:01:21.501Z,96118.41
2023-01-26T21:03:51.742Z,96152.41
2023-01-26T21:06:20.381Z,96093.44
2023-01-26T21:08:48.915Z,96121.75
2023-01-26T21:11:17.014Z,96064.41
2023-01-26T21:13:48.409Z,96106.41
2023-01-26T21:16:17.208Z,96073.56
2023-01-26T21:18:46.212Z,96131.97
2023-01-26T21:21:19.198Z,96070.19
2023-01-26T21:23:46.247Z,96091.53
2023-01-26T21:26:15.866Z,96099.28
2023-01-26T21:28:42.745Z,96120.41
2023-01-26T21:31:16.525Z,96140.72
2023-01-26T21:33:45.711Z,96129.06
2023-01-26T21:36:14.855Z,96104.53
2023-01-26T21:38:44.725Z,96081.66
2023-01-26T21:41:33.138Z,96101.22
2023-01-26T21:44:06.570Z,96088.72
2023-01-26T21:46:34.061Z,96108.81
2023-01-26T21:49:01.611Z,96114.78
2023-01-26T21:51:48.384Z,96101.88
2023-01-26T21:54:15.694Z,96096.44
2023-01-26T21:56:42.821Z,96101.13
2023-01-26T21:59:14.731Z,96112.13
2023-01-26T22:01:45.703Z,96108.50
2023-01-26T22:04:17.237Z,96122.38
2023-01-26T22:06:44.283Z,96085.19
2023-01-26T22:09:12.894Z,96097.25
2023-01-26T22:11:39.735Z,96080.31
2023-01-26T22:14:07.728Z,96079.41
2023-01-26T22:16:34.511Z,96100.00
2023-01-26T22:19:02.091Z,96083.78
2023-01-26T22:21:28.743Z,96076.28
2023-01-26T22:23:55.568Z,96100.97
2023-01-26T22:26:23.112Z,96086.41
2023-01-26T22:28:52.922Z,96096.34
2023-01-26T22:31:23.035Z,96088.16
2023-01-26T22:33:50.546Z,96085.34
2023-01-26T22:36:17.353Z,96101.22
2023-01-26T22:38:45.648Z,96101.94
2023-01-26T22:41:26.870Z,96108.50
2023-01-26T22:43:57.631Z,96099.31
2023-01-26T22:46:30.659Z,96095.78
2023-01-26T22:48:58.787Z,96082.38
2023-01-26T22:51:30.587Z,96083.88
2023-01-26T22:53:58.994Z,96087.84
2023-01-26T22:56:26.239Z,96101.78
2023-01-26T22:58:59.351Z,96091.69
2023-01-26T23:01:32.827Z,96077.25
2023-01-26T23:04:00.889Z,96092.13
2023-01-26T23:06:28.627Z,96085.03
2023-01-26T23:08:55.501Z,96079.81
2023-01-26T23:11:25.629Z,96084.91
2023-01-26T23:13:54.901Z,96080.41
2023-01-26T23:16:23.870Z,96081.72
2023-01-26T23:18:54.923Z,96076.50
2023-01-26T23:21:26.674Z,96083.03
2023-01-26T23:23:53.916Z,96082.88
2023-01-26T23:26:21.154Z,96063.84
2023-01-26T23:28:48.836Z,96036.66
2023-01-26T23:31:20.025Z,96080.78
2023-01-26T23:33:51.481Z,96072.75
2023-01-26T23:36:18.773Z,96077.97
2023-01-26T23:38:45.859Z,96063.44
2023-01-26T23:41:13.329Z,96075.56
2023-01-26T23:43:40.125Z,96071.44
2023-01-26T23:46:08.565Z,96068.63
2023-01-26T23:48:35.352Z,96064.69
2023-01-26T23:51:05.571Z,96063.94
2023-01-26T23:53:35.138Z,96043.69
2023-01-26T23:56:14.511Z,96061.53
2023-01-26T23:58:41.348Z,96062.50
